createdAt,value
2019-02-08T00:00:23.974Z,0.00
2019-02-08T00:01:23.955Z,0.00
2019-02-08T00:02:23.941Z,0.00
2019-02-08T00:03:23.929Z,0.00
2019-02-08T00:04:23.949Z,0.00
2019-02-08T00:05:23.905Z,0.00
2019-02-08T00:06:23.928Z,0.00
2019-02-08T00:07:23.887Z,0.00
2019-02-08T00:08:23.873Z,0.00
2019-02-08T00:09:23.908Z,0.00
2019-02-08T00:10:23.855Z,0.00
2019-02-08T00:11:23.841Z,0.00
2019-02-08T00:12:23.837Z,0.00
2019-02-08T00:13:23.817Z,0.00
2019-02-08T00:14:23.840Z,0.00
2019-02-08T00:15:23.810Z,0.00
2019-02-08T00:16:23.811Z,0.00
2019-02-08T00:17:23.780Z,0.00
2019-02-08T00:18:23.761Z,0.00
2019-02-08T00:19:23.754Z,0.00
2019-02-08T00:20:23.770Z,0.00
2019-02-08T00:21:23.735Z,0.00
2019-02-08T00:22:23.723Z,0.00
2019-02-08T00:23:27.051Z,0.00
2019-02-08T00:24:23.707Z,0.00
2019-02-08T00:25:23.732Z,0.00
2019-02-08T00:26:23.683Z,0.00
2019-02-08T00:27:23.659Z,0.00
2019-02-08T00:28:23.653Z,0.00
2019-02-08T00:29:23.649Z,0.00
2019-02-08T00:30:23.649Z,0.00
2019-02-08T00:31:23.624Z,0.00
2019-02-08T00:32:23.608Z,0.00
2019-02-08T00:33:23.590Z,0.00
2019-02-08T00:34:23.581Z,0.00
2019-02-08T00:35:23.606Z,0.00
2019-02-08T00:36:23.567Z,0.00
2019-02-08T00:37:23.545Z,0.00
2019-02-08T00:38:23.540Z,0.00
2019-02-08T00:39:23.529Z,0.00
2019-02-08T00:40:23.529Z,0.00
2019-02-08T00:41:23.533Z,0.00
2019-02-08T00:42:23.497Z,0.00
2019-02-08T00:43:23.486Z,0.00
2019-02-08T00:44:23.473Z,0.00
2019-02-08T00:45:23.488Z,0.00
2019-02-08T00:46:23.475Z,0.00
2019-02-08T00:47:23.438Z,0.00
2019-02-08T00:48:23.434Z,0.00
2019-02-08T00:49:23.418Z,0.00
2019-02-08T00:50:23.405Z,0.00
2019-02-08T00:51:23.419Z,0.00
2019-02-08T00:52:23.390Z,0.00
2019-02-08T00:53:23.376Z,0.00
2019-02-08T00:54:23.377Z,0.00
2019-02-08T00:55:23.361Z,0.00
2019-02-08T00:56:23.398Z,0.00
2019-02-08T00:57:23.329Z,0.00
2019-02-08T00:58:23.327Z,0.00
2019-02-08T00:59:23.328Z,0.00
2019-02-08T01:00:23.293Z,0.00
2019-02-08T01:01:23.325Z,0.00
2019-02-08T01:02:23.272Z,0.00
2019-02-08T01:03:23.275Z,0.00
2019-02-08T01:04:23.267Z,0.00
2019-02-08T01:05:23.245Z,0.00
2019-02-08T01:06:23.230Z,0.00
2019-02-08T01:07:23.251Z,0.00
2019-02-08T01:08:23.208Z,0.00
2019-02-08T01:09:23.207Z,0.00
2019-02-08T01:10:23.189Z,0.00
2019-02-08T01:11:23.184Z,0.00
2019-02-08T01:12:23.188Z,0.00
2019-02-08T01:13:23.163Z,0.00
2019-02-08T01:14:23.139Z,0.00
2019-02-08T01:15:23.133Z,0.00
2019-02-08T01:16:23.123Z,0.00
2019-02-08T01:17:23.130Z,0.00
2019-02-08T01:18:23.101Z,0.00
2019-02-08T01:19:23.089Z,0.00
2019-02-08T01:20:23.088Z,0.00
2019-02-08T01:21:23.075Z,0.00
2019-02-08T01:22:23.086Z,0.00
2019-02-08T01:23:23.039Z,0.00
2019-02-08T01:24:23.034Z,0.00
2019-02-08T01:25:23.018Z,0.00
2019-02-08T01:26:23.013Z,0.00
2019-02-08T01:27:23.024Z,0.00
2019-02-08T01:28:22.990Z,0.00
2019-02-08T01:29:22.971Z,0.00
2019-02-08T01:30:22.964Z,0.00
2019-02-08T01:31:22.950Z,0.00
2019-02-08T01:32:22.979Z,0.00
2019-02-08T01:33:22.929Z,0.00
2019-02-08T01:34:22.916Z,0.00
2019-02-08T01:35:22.907Z,0.00
2019-02-08T01:36:22.895Z,0.00
2019-02-08T01:37:22.884Z,0.00
2019-02-08T01:38:22.889Z,0.00
2019-02-08T01:39:22.865Z,0.00
2019-02-08T01:40:22.852Z,0.00
2019-02-08T01:41:22.844Z,0.00
2019-02-08T01:42:22.829Z,0.00
2019-02-08T01:43:22.842Z,0.00
2019-02-08T01:44:22.821Z,0.00
2019-02-08T01:45:22.803Z,0.00
2019-02-08T01:46:22.790Z,0.00
2019-02-08T01:47:22.774Z,0.00
2019-02-08T01:48:22.800Z,0.00
2019-02-08T01:49:22.761Z,0.00
2019-02-08T01:50:22.742Z,0.00
2019-02-08T01:51:22.742Z,0.00
2019-02-08T01:52:22.720Z,0.00
2019-02-08T01:53:22.733Z,0.00
2019-02-08T01:54:22.701Z,0.00
2019-02-08T01:55:22.691Z,0.00
2019-02-08T01:56:22.676Z,0.00
2019-02-08T01:57:22.670Z,0.00
2019-02-08T01:58:22.652Z,0.00
2019-02-08T01:59:22.660Z,0.00
2019-02-08T02:00:22.649Z,0.00
2019-02-08T02:01:22.626Z,0.00
2019-02-08T02:02:22.616Z,0.00
2019-02-08T02:03:22.597Z,0.00
2019-02-08T02:04:22.602Z,0.00
2019-02-08T02:05:22.575Z,0.00
2019-02-08T02:06:22.562Z,0.00
2019-02-08T02:07:22.554Z,0.00
2019-02-08T02:08:22.540Z,0.00
2019-02-08T02:09:22.556Z,0.00
2019-02-08T02:10:22.525Z,0.00
2019-02-08T02:11:22.509Z,0.00
2019-02-08T02:12:22.503Z,0.00
2019-02-08T02:13:22.485Z,0.00
2019-02-08T02:14:22.495Z,0.00
2019-02-08T02:15:22.466Z,0.00
2019-02-08T02:16:22.455Z,0.00
2019-02-08T02:17:22.440Z,0.00
2019-02-08T02:18:22.438Z,0.00
2019-02-08T02:19:22.442Z,0.00
2019-02-08T02:20:22.408Z,0.00
2019-02-08T02:21:22.400Z,0.00
2019-02-08T02:22:22.389Z,0.00
2019-02-08T02:23:22.382Z,0.00
2019-02-08T02:24:22.513Z,0.00
2019-02-08T02:25:22.360Z,0.00
2019-02-08T02:26:22.340Z,0.00
2019-02-08T02:27:22.329Z,0.00
2019-02-08T02:28:22.328Z,0.00
2019-02-08T02:29:22.343Z,0.00
2019-02-08T02:30:22.298Z,0.00
2019-02-08T02:31:22.294Z,0.00
2019-02-08T02:32:22.274Z,0.00
2019-02-08T02:33:22.267Z,0.00
2019-02-08T02:34:22.252Z,0.00
2019-02-08T02:35:22.268Z,0.00
2019-02-08T02:36:22.237Z,0.00
2019-02-08T02:37:22.237Z,0.00
2019-02-08T02:38:22.210Z,0.00
2019-02-08T02:39:22.210Z,0.00
2019-02-08T02:40:22.227Z,0.00
2019-02-08T02:41:22.177Z,0.00
2019-02-08T02:42:22.165Z,0.00
2019-02-08T02:43:22.156Z,0.00
2019-02-08T02:44:22.143Z,0.00
2019-02-08T02:45:22.154Z,0.00
2019-02-08T02:46:22.131Z,0.00
2019-02-08T02:47:22.108Z,0.00
2019-02-08T02:48:22.101Z,0.00
2019-02-08T02:49:22.087Z,0.00
2019-02-08T02:50:22.099Z,0.00
2019-02-08T02:51:22.065Z,0.00
2019-02-08T02:52:22.054Z,0.00
2019-02-08T02:53:22.042Z,0.00
2019-02-08T02:54:22.045Z,0.00
2019-02-08T02:55:22.057Z,0.00
2019-02-08T02:56:22.016Z,0.00
2019-02-08T02:57:22.003Z,0.00
2019-02-08T02:58:21.993Z,0.00
2019-02-08T02:59:21.979Z,0.00
2019-02-08T03:00:22.005Z,0.00
2019-02-08T03:01:21.962Z,0.00
2019-02-08T03:02:21.941Z,0.00
2019-02-08T03:03:21.937Z,0.00
2019-02-08T03:04:21.924Z,0.00
2019-02-08T03:05:21.910Z,0.00
2019-02-08T03:06:21.916Z,0.00
2019-02-08T03:07:21.896Z,0.00
2019-02-08T03:08:21.876Z,0.00
2019-02-08T03:09:21.873Z,0.00
2019-02-08T03:10:21.863Z,0.00
2019-02-08T03:11:21.883Z,0.00
2019-02-08T03:12:21.829Z,0.00
2019-02-08T03:13:21.825Z,0.00
2019-02-08T03:14:21.811Z,0.00
2019-02-08T03:15:21.803Z,0.00
2019-02-08T03:16:21.824Z,0.00
2019-02-08T03:17:21.787Z,0.00
2019-02-08T03:18:21.769Z,0.00
2019-02-08T03:19:21.763Z,0.00
2019-02-08T03:20:21.742Z,0.00
2019-02-08T03:21:21.761Z,0.00
2019-02-08T03:22:21.724Z,0.00
2019-02-08T03:23:21.727Z,0.00
2019-02-08T03:24:21.728Z,0.00
2019-02-08T03:25:21.689Z,0.00
2019-02-08T03:26:21.699Z,0.00
2019-02-08T03:27:21.677Z,0.00
2019-02-08T03:28:21.668Z,0.00
2019-02-08T03:29:21.653Z,0.00
2019-02-08T03:30:21.638Z,0.00
2019-02-08T03:31:21.650Z,0.00
2019-02-08T03:32:21.622Z,0.00
2019-02-08T03:33:21.608Z,0.00
2019-02-08T03:34:21.586Z,0.00
2019-02-08T03:35:21.583Z,0.00
2019-02-08T03:36:21.567Z,0.00
2019-02-08T03:37:21.588Z,0.00
2019-02-08T03:38:21.545Z,0.00
2019-02-08T03:39:21.541Z,0.00
2019-02-08T03:40:21.534Z,0.00
2019-02-08T03:41:21.509Z,0.00
2019-02-08T03:42:21.517Z,0.00
2019-02-08T03:43:21.500Z,0.00
2019-02-08T03:44:21.487Z,0.00
2019-02-08T03:45:21.467Z,0.00
2019-02-08T03:46:21.471Z,0.00
2019-02-08T03:47:21.476Z,0.00
2019-02-08T03:48:21.433Z,0.00
2019-02-08T03:49:21.429Z,0.00
2019-02-08T03:50:21.421Z,0.00
2019-02-08T03:51:21.405Z,0.00
2019-02-08T03:52:21.413Z,0.00
2019-02-08T03:53:21.380Z,0.00
2019-02-08T03:54:21.522Z,0.00
2019-02-08T03:55:21.361Z,0.00
2019-02-08T03:56:21.343Z,0.00
2019-02-08T03:57:21.362Z,0.00
2019-02-08T03:58:21.326Z,0.00
2019-02-08T03:59:21.316Z,0.00
2019-02-08T04:00:21.347Z,0.00
2019-02-08T04:01:21.289Z,0.00
2019-02-08T04:02:21.282Z,0.00
2019-02-08T04:03:21.290Z,0.00
2019-02-08T04:04:21.257Z,0.00
2019-02-08T04:05:21.259Z,0.00
2019-02-08T04:06:21.243Z,0.00
2019-02-08T04:07:21.224Z,0.00
2019-02-08T04:08:21.248Z,0.00
2019-02-08T04:09:21.208Z,0.00
2019-02-08T04:10:21.196Z,0.00
2019-02-08T04:11:21.181Z,0.00
2019-02-08T04:12:21.185Z,0.00
2019-02-08T04:13:21.177Z,0.00
2019-02-08T04:14:21.147Z,0.00
2019-02-08T04:15:21.143Z,0.00
2019-02-08T04:16:21.124Z,0.00
2019-02-08T04:17:21.112Z,0.00
2019-02-08T04:18:21.134Z,0.00
2019-02-08T04:19:21.093Z,0.00
2019-02-08T04:20:21.081Z,0.00
2019-02-08T04:21:21.073Z,0.00
2019-02-08T04:22:21.064Z,0.00
2019-02-08T04:23:21.044Z,0.00
2019-02-08T04:24:29.549Z,0.00
2019-02-08T04:25:22.045Z,0.00
2019-02-08T04:26:21.013Z,0.00
2019-02-08T04:27:21.000Z,0.00
2019-02-08T04:28:20.996Z,0.00
2019-02-08T04:29:20.996Z,0.00
2019-02-08T04:30:20.977Z,0.00
2019-02-08T04:31:20.965Z,0.00
2019-02-08T04:32:20.945Z,0.00
2019-02-08T04:33:20.938Z,0.00
2019-02-08T04:34:20.945Z,0.00
2019-02-08T04:35:20.927Z,0.00
2019-02-08T04:36:20.912Z,0.00
2019-02-08T04:37:20.895Z,0.00
2019-02-08T04:38:20.880Z,0.00
2019-02-08T04:39:20.895Z,0.00
2019-02-08T04:40:20.859Z,0.00
2019-02-08T04:41:20.845Z,0.00
2019-02-08T04:42:20.840Z,0.00
2019-02-08T04:43:20.826Z,0.00
2019-02-08T04:44:20.855Z,0.00
2019-02-08T04:45:20.805Z,0.00
2019-02-08T04:46:20.798Z,0.00
2019-02-08T04:47:20.795Z,0.00
2019-02-08T04:48:20.774Z,0.00
2019-02-08T04:49:20.765Z,0.00
2019-02-08T04:50:20.765Z,0.00
2019-02-08T04:51:20.738Z,0.00
2019-02-08T04:52:20.728Z,0.00
2019-02-08T04:53:20.740Z,0.00
2019-02-08T04:54:20.704Z,0.00
2019-02-08T04:55:20.710Z,0.00
2019-02-08T04:56:20.685Z,0.00
2019-02-08T04:57:20.670Z,0.00
2019-02-08T04:58:20.662Z,0.00
2019-02-08T04:59:20.653Z,0.00
2019-02-08T05:00:20.655Z,0.00
2019-02-08T05:01:20.634Z,0.00
2019-02-08T05:02:20.631Z,0.00
2019-02-08T05:03:20.602Z,0.00
2019-02-08T05:04:20.602Z,0.00
2019-02-08T05:05:20.617Z,0.00
2019-02-08T05:06:20.573Z,0.00
2019-02-08T05:07:20.563Z,0.00
2019-02-08T05:08:20.545Z,0.00
2019-02-08T05:09:20.551Z,0.00
2019-02-08T05:10:20.536Z,0.00
2019-02-08T05:11:20.548Z,0.00
2019-02-08T05:12:20.504Z,0.00
2019-02-08T05:13:20.493Z,0.00
2019-02-08T05:14:20.482Z,0.00
2019-02-08T05:15:20.487Z,0.00
2019-02-08T05:16:20.487Z,0.00
2019-02-08T05:17:20.450Z,0.00
2019-02-08T05:18:20.443Z,0.00
2019-02-08T05:19:20.433Z,0.00
2019-02-08T05:20:20.431Z,0.00
2019-02-08T05:21:20.433Z,0.00
2019-02-08T05:22:20.400Z,0.00
2019-02-08T05:23:20.383Z,0.00
2019-02-08T05:24:20.369Z,0.00
2019-02-08T05:25:20.363Z,0.00
2019-02-08T05:26:20.365Z,0.00
2019-02-08T05:27:20.344Z,0.00
2019-02-08T05:28:20.327Z,0.00
2019-02-08T05:29:20.326Z,0.00
2019-02-08T05:30:20.312Z,0.00
2019-02-08T05:31:20.351Z,0.00
2019-02-08T05:32:20.286Z,0.00
2019-02-08T05:33:20.271Z,0.00
2019-02-08T05:34:20.267Z,0.00
2019-02-08T05:35:20.249Z,0.00
2019-02-08T05:36:20.240Z,0.00
2019-02-08T05:37:20.245Z,0.00
2019-02-08T05:38:20.228Z,0.00
2019-02-08T05:39:20.209Z,0.00
2019-02-08T05:40:20.210Z,0.00
2019-02-08T05:41:20.228Z,0.00
2019-02-08T05:42:20.188Z,0.00
2019-02-08T05:43:20.160Z,0.00
2019-02-08T05:44:20.158Z,0.00
2019-02-08T05:45:20.149Z,0.00
2019-02-08T05:46:20.147Z,0.00
2019-02-08T05:47:20.154Z,0.00
2019-02-08T05:48:20.118Z,0.00
2019-02-08T05:49:20.099Z,0.00
2019-02-08T05:50:20.084Z,0.00
2019-02-08T05:51:20.074Z,0.00
2019-02-08T05:52:20.084Z,0.00
2019-02-08T05:53:20.054Z,0.00
2019-02-08T05:54:20.042Z,0.00
2019-02-08T05:55:20.035Z,0.00
2019-02-08T05:56:20.042Z,0.00
2019-02-08T05:57:20.038Z,0.00
2019-02-08T05:58:20.018Z,0.00
2019-02-08T05:59:19.985Z,0.00
2019-02-08T06:00:19.973Z,0.00
2019-02-08T06:01:19.970Z,0.00
2019-02-08T06:02:19.973Z,0.00
2019-02-08T06:03:19.958Z,0.00
2019-02-08T06:04:19.945Z,0.00
2019-02-08T06:05:19.926Z,0.00
2019-02-08T06:06:19.914Z,4.00
2019-02-08T06:07:19.905Z,4.00
2019-02-08T06:08:19.911Z,4.00
2019-02-08T06:09:19.873Z,4.00
2019-02-08T06:10:19.860Z,4.00
2019-02-08T06:11:19.851Z,4.00
2019-02-08T06:12:19.844Z,8.00
2019-02-08T06:13:19.848Z,4.00
2019-02-08T06:14:19.819Z,8.00
2019-02-08T06:15:19.802Z,8.00
2019-02-08T06:16:19.808Z,8.00
2019-02-08T06:17:19.788Z,12.00
2019-02-08T06:18:19.805Z,16.00
2019-02-08T06:19:19.774Z,16.00
2019-02-08T06:20:19.819Z,20.00
2019-02-08T06:21:19.740Z,24.00
2019-02-08T06:22:19.725Z,24.00
2019-02-08T06:23:19.743Z,28.00
2019-02-08T06:24:19.704Z,36.00
2019-02-08T06:25:19.696Z,36.00
2019-02-08T06:26:19.685Z,44.00
2019-02-08T06:27:19.677Z,52.00
2019-02-08T06:28:19.713Z,60.00
2019-02-08T06:29:19.650Z,64.00
2019-02-08T06:30:19.643Z,72.00
2019-02-08T06:31:19.644Z,80.00
2019-02-08T06:32:19.617Z,88.00
2019-02-08T06:33:19.628Z,100.00
2019-02-08T06:34:19.625Z,112.00
2019-02-08T06:35:19.589Z,124.00
2019-02-08T06:36:19.575Z,136.00
2019-02-08T06:37:19.571Z,152.00
2019-02-08T06:38:19.554Z,164.00
2019-02-08T06:39:19.561Z,180.00
2019-02-08T06:40:19.529Z,196.00
2019-02-08T06:41:19.527Z,216.00
2019-02-08T06:42:19.510Z,236.00
2019-02-08T06:43:19.509Z,256.00
2019-02-08T06:44:19.542Z,272.00
2019-02-08T06:45:19.481Z,288.00
2019-02-08T06:46:19.471Z,308.00
2019-02-08T06:47:19.452Z,332.00
2019-02-08T06:48:19.451Z,348.00
2019-02-08T06:49:19.452Z,368.00
2019-02-08T06:50:19.424Z,392.00
2019-02-08T06:51:19.406Z,408.00
2019-02-08T06:52:19.398Z,432.00
2019-02-08T06:53:19.389Z,456.00
2019-02-08T06:54:19.403Z,476.00
2019-02-08T06:55:19.364Z,496.00
2019-02-08T06:56:19.356Z,524.00
2019-02-08T06:57:19.343Z,544.00
2019-02-08T06:58:19.341Z,568.00
2019-02-08T06:59:19.318Z,592.00
2019-02-08T07:00:19.326Z,616.00
2019-02-08T07:01:19.300Z,636.00
2019-02-08T07:02:19.285Z,660.00
2019-02-08T07:03:19.271Z,684.00
2019-02-08T07:04:19.266Z,704.00
2019-02-08T07:05:19.268Z,732.00
2019-02-08T07:06:19.252Z,760.00
2019-02-08T07:07:19.230Z,780.00
2019-02-08T07:08:19.222Z,804.00
2019-02-08T07:09:19.209Z,828.00
2019-02-08T07:10:19.210Z,852.00
2019-02-08T07:11:19.188Z,876.00
2019-02-08T07:12:19.177Z,904.00
2019-02-08T07:13:19.158Z,924.00
2019-02-08T07:14:19.149Z,944.00
2019-02-08T07:15:19.160Z,968.00
2019-02-08T07:16:19.131Z,992.00
2019-02-08T07:17:19.122Z,1016.00
2019-02-08T07:18:19.105Z,1036.00
2019-02-08T07:19:19.098Z,1060.00
2019-02-08T07:20:19.122Z,1088.00
2019-02-08T07:21:19.081Z,1108.00
2019-02-08T07:22:19.061Z,1128.00
2019-02-08T07:23:19.051Z,1152.00
2019-02-08T07:24:19.039Z,1180.00
2019-02-08T07:25:19.040Z,1204.00
2019-02-08T07:26:19.042Z,1224.00
2019-02-08T07:27:19.010Z,1252.00
2019-02-08T07:28:19.001Z,1276.00
2019-02-08T07:29:18.983Z,1308.00
2019-02-08T07:30:18.972Z,1336.00
2019-02-08T07:31:19.087Z,1356.00
2019-02-08T07:32:18.956Z,1376.00
2019-02-08T07:33:18.940Z,1400.00
2019-02-08T07:34:18.927Z,1428.00
2019-02-08T07:35:18.916Z,1448.00
2019-02-08T07:36:18.920Z,1476.00
2019-02-08T07:37:18.897Z,1496.00
2019-02-08T07:38:18.881Z,1520.00
2019-02-08T07:39:18.874Z,1548.00
2019-02-08T07:40:18.865Z,1572.00
2019-02-08T07:41:18.868Z,1600.00
2019-02-08T07:42:18.845Z,1620.00
2019-02-08T07:43:18.840Z,1640.00
2019-02-08T07:44:18.822Z,1672.00
2019-02-08T07:45:18.810Z,1696.00
2019-02-08T07:46:18.814Z,1724.00
2019-02-08T07:47:18.821Z,1752.00
2019-02-08T07:48:18.773Z,1776.00
2019-02-08T07:49:18.791Z,1796.00
2019-02-08T07:50:18.764Z,1836.00
2019-02-08T07:51:18.784Z,1864.00
2019-02-08T07:52:18.726Z,1900.00
2019-02-08T07:53:18.721Z,1924.00
2019-02-08T07:54:18.709Z,1944.00
2019-02-08T07:55:25.815Z,1984.00
2019-02-08T07:56:19.704Z,2004.00
2019-02-08T07:57:18.684Z,2032.00
2019-02-08T07:58:18.665Z,2064.00
2019-02-08T07:59:18.651Z,2092.00
2019-02-08T08:00:18.645Z,2112.00
2019-02-08T08:01:18.635Z,2128.00
2019-02-08T08:02:18.642Z,2200.00
2019-02-08T08:03:18.602Z,2364.00
2019-02-08T08:04:18.591Z,2552.00
2019-02-08T08:05:18.581Z,2632.00
2019-02-08T08:06:18.571Z,2788.00
2019-02-08T08:07:18.584Z,3016.00
2019-02-08T08:08:18.551Z,3308.00
2019-02-08T08:09:18.538Z,3664.00
2019-02-08T08:10:18.527Z,4000.00
2019-02-08T08:11:18.520Z,4012.00
2019-02-08T08:12:18.519Z,4028.00
2019-02-08T08:13:18.514Z,4152.00
2019-02-08T08:14:18.504Z,3540.00
2019-02-08T08:15:18.473Z,3524.00
2019-02-08T08:16:18.466Z,3876.00
2019-02-08T08:17:18.519Z,4068.00
2019-02-08T08:18:18.455Z,3724.00
2019-02-08T08:19:18.425Z,3400.00
2019-02-08T08:20:18.421Z,2916.00
2019-02-08T08:21:18.406Z,2316.00
2019-02-08T08:22:18.428Z,2524.00
2019-02-08T08:23:18.386Z,2916.00
2019-02-08T08:24:18.384Z,3468.00
2019-02-08T08:25:18.400Z,4300.00
2019-02-08T08:26:18.355Z,3812.00
2019-02-08T08:27:18.340Z,3876.00
2019-02-08T08:28:18.349Z,3748.00
2019-02-08T08:29:18.320Z,4068.00
2019-02-08T08:30:18.297Z,3728.00
2019-02-08T08:31:18.330Z,3444.00
2019-02-08T08:32:18.283Z,3024.00
2019-02-08T08:33:18.592Z,2912.00
2019-02-08T08:34:18.255Z,3452.00
2019-02-08T08:35:18.259Z,4372.00
2019-02-08T08:36:18.242Z,3744.00
2019-02-08T08:37:18.227Z,3256.00
2019-02-08T08:38:18.233Z,3284.00
2019-02-08T08:39:18.196Z,4148.00
2019-02-08T08:40:18.220Z,5180.00
2019-02-08T08:41:18.191Z,6416.00
2019-02-08T08:42:18.171Z,6392.00
2019-02-08T08:43:18.179Z,5844.00
2019-02-08T08:44:18.148Z,6232.00
2019-02-08T08:45:18.190Z,5992.00
2019-02-08T08:46:18.133Z,5848.00
2019-02-08T08:47:18.115Z,5116.00
2019-02-08T08:48:18.101Z,3740.00
2019-02-08T08:49:18.116Z,2672.00
2019-02-08T08:50:18.077Z,2264.00
2019-02-08T08:51:18.067Z,2320.00
2019-02-08T08:52:18.055Z,2928.00
2019-02-08T08:53:18.045Z,3056.00
2019-02-08T08:54:18.052Z,3052.00
2019-02-08T08:55:18.021Z,3052.00
2019-02-08T08:56:18.021Z,3040.00
2019-02-08T08:57:17.998Z,3036.00
2019-02-08T08:58:17.997Z,3028.00
2019-02-08T08:59:18.004Z,3032.00
2019-02-08T09:00:17.973Z,3028.00
2019-02-08T09:01:17.951Z,3024.00
2019-02-08T09:02:17.943Z,3044.00
2019-02-08T09:03:17.947Z,3100.00
2019-02-08T09:04:17.948Z,3076.00
2019-02-08T09:05:17.914Z,3120.00
2019-02-08T09:06:17.897Z,3160.00
2019-02-08T09:07:17.889Z,3188.00
2019-02-08T09:08:17.886Z,3168.00
2019-02-08T09:09:17.897Z,3188.00
2019-02-08T09:10:17.860Z,3212.00
2019-02-08T09:11:17.848Z,3232.00
2019-02-08T09:12:17.853Z,3272.00
2019-02-08T09:13:17.830Z,3348.00
2019-02-08T09:14:17.847Z,3640.00
2019-02-08T09:15:17.831Z,4032.00
2019-02-08T09:16:17.794Z,3644.00
2019-02-08T09:17:17.774Z,3428.00
2019-02-08T09:18:17.768Z,3436.00
2019-02-08T09:19:17.759Z,3400.00
2019-02-08T09:20:17.771Z,3360.00
2019-02-08T09:21:17.745Z,3328.00
2019-02-08T09:22:17.719Z,3304.00
2019-02-08T09:23:17.706Z,3248.00
2019-02-08T09:24:17.712Z,3324.00
2019-02-08T09:25:17.703Z,3280.00
2019-02-08T09:26:17.673Z,3312.00
2019-02-08T09:27:17.664Z,3372.00
2019-02-08T09:28:17.658Z,3436.00
2019-02-08T09:29:17.643Z,3476.00
2019-02-08T09:30:17.653Z,3464.00
2019-02-08T09:31:17.618Z,3520.00
2019-02-08T09:32:17.618Z,3648.00
2019-02-08T09:33:17.603Z,3756.00
2019-02-08T09:34:17.591Z,3812.00
2019-02-08T09:35:17.618Z,3992.00
2019-02-08T09:36:17.567Z,3992.00
2019-02-08T09:37:17.557Z,3764.00
2019-02-08T09:38:17.539Z,3596.00
2019-02-08T09:39:17.537Z,3428.00
2019-02-08T09:40:17.555Z,3432.00
2019-02-08T09:41:17.507Z,3456.00
2019-02-08T09:42:17.495Z,3472.00
2019-02-08T09:43:17.487Z,3540.00
2019-02-08T09:44:17.477Z,3600.00
2019-02-08T09:45:17.463Z,3764.00
2019-02-08T09:46:17.473Z,4128.00
2019-02-08T09:47:17.452Z,4828.00
2019-02-08T09:48:17.467Z,5652.00
2019-02-08T09:49:17.417Z,6388.00
2019-02-08T09:50:17.404Z,7116.00
2019-02-08T09:51:17.419Z,7492.00
2019-02-08T09:52:17.381Z,7740.00
2019-02-08T09:53:17.375Z,7400.00
2019-02-08T09:54:17.365Z,7476.00
2019-02-08T09:55:17.348Z,7492.00
2019-02-08T09:56:17.370Z,7968.00
2019-02-08T09:57:17.328Z,8260.00
2019-02-08T09:58:17.326Z,8476.00
2019-02-08T09:59:17.302Z,8512.00
2019-02-08T10:00:17.295Z,8764.00
2019-02-08T10:01:17.309Z,8244.00
2019-02-08T10:02:17.276Z,8892.00
2019-02-08T10:03:17.266Z,9420.00
2019-02-08T10:04:17.267Z,9348.00
2019-02-08T10:05:17.239Z,9932.00
2019-02-08T10:06:17.235Z,10220.00
2019-02-08T10:07:17.232Z,10564.00
2019-02-08T10:08:17.203Z,10728.00
2019-02-08T10:09:17.199Z,10920.00
2019-02-08T10:10:17.236Z,11348.00
2019-02-08T10:11:17.170Z,11680.00
2019-02-08T10:12:18.616Z,12044.00
2019-02-08T10:13:32.081Z,12184.00
2019-02-08T10:14:17.166Z,11804.00
2019-02-08T10:15:17.141Z,12520.00
2019-02-08T10:16:17.125Z,13008.00
2019-02-08T10:17:17.121Z,13556.00
2019-02-08T10:18:17.149Z,13964.00
2019-02-08T10:19:17.087Z,14312.00
2019-02-08T10:20:17.073Z,14556.00
2019-02-08T10:21:17.074Z,14792.00
2019-02-08T10:22:17.088Z,14780.00
2019-02-08T10:23:17.036Z,14772.00
2019-02-08T10:24:17.023Z,15484.00
2019-02-08T10:25:17.020Z,15284.00
2019-02-08T10:26:17.003Z,16192.00
2019-02-08T10:27:17.032Z,17120.00
2019-02-08T10:28:17.001Z,17536.00
2019-02-08T10:29:16.964Z,17056.00
2019-02-08T10:30:16.955Z,20704.00
2019-02-08T10:31:16.944Z,15152.00
2019-02-08T10:32:16.931Z,12248.00
2019-02-08T10:33:16.957Z,10612.00
2019-02-08T10:34:16.913Z,9972.00
2019-02-08T10:35:16.895Z,10372.00
2019-02-08T10:36:16.895Z,9992.00
2019-02-08T10:37:17.554Z,9952.00
2019-02-08T10:38:16.891Z,10688.00
2019-02-08T10:39:16.856Z,11512.00
2019-02-08T10:40:16.849Z,13376.00
2019-02-08T10:41:16.837Z,12780.00
2019-02-08T10:42:16.822Z,12256.00
2019-02-08T10:43:16.844Z,13260.00
2019-02-08T10:44:16.796Z,13020.00
2019-02-08T10:45:16.787Z,12832.00
2019-02-08T10:46:16.782Z,13604.00
2019-02-08T10:47:17.971Z,13808.00
2019-02-08T10:48:16.779Z,13660.00
2019-02-08T10:49:16.744Z,14752.00
2019-02-08T10:50:16.732Z,15464.00
2019-02-08T10:51:16.726Z,16832.00
2019-02-08T10:52:16.720Z,16864.00
2019-02-08T10:53:16.717Z,16896.00
2019-02-08T10:54:16.708Z,16640.00
2019-02-08T10:55:16.670Z,21824.00
2019-02-08T10:56:16.663Z,23136.00
2019-02-08T10:57:16.652Z,26528.00
2019-02-08T10:58:16.640Z,24640.00
2019-02-08T10:59:16.644Z,16512.00
2019-02-08T11:00:16.616Z,14256.00
2019-02-08T11:01:16.605Z,12904.00
2019-02-08T11:02:16.603Z,11932.00
2019-02-08T11:03:16.600Z,12336.00
2019-02-08T11:04:16.603Z,12124.00
2019-02-08T11:05:16.569Z,12760.00
2019-02-08T11:06:16.556Z,13636.00
2019-02-08T11:07:16.539Z,18144.00
2019-02-08T11:08:16.537Z,37952.00
2019-02-08T11:09:16.544Z,14192.00
2019-02-08T11:10:16.507Z,11668.00
2019-02-08T11:11:16.514Z,13396.00
2019-02-08T11:12:16.483Z,15392.00
2019-02-08T11:13:16.474Z,15320.00
2019-02-08T11:14:16.484Z,15348.00
2019-02-08T11:15:16.446Z,17920.00
2019-02-08T11:16:16.436Z,19520.00
2019-02-08T11:17:16.423Z,20288.00
2019-02-08T11:18:16.412Z,15396.00
2019-02-08T11:19:16.418Z,13492.00
2019-02-08T11:20:16.416Z,13152.00
2019-02-08T11:21:16.379Z,12956.00
2019-02-08T11:22:16.366Z,13276.00
2019-02-08T11:23:16.363Z,13132.00
2019-02-08T11:24:16.341Z,12700.00
2019-02-08T11:25:16.348Z,12316.00
2019-02-08T11:26:22.495Z,12632.00
2019-02-08T11:27:17.313Z,13284.00
2019-02-08T11:28:16.299Z,13524.00
2019-02-08T11:29:16.286Z,13636.00
2019-02-08T11:30:16.289Z,14452.00
2019-02-08T11:31:16.264Z,15548.00
2019-02-08T11:32:16.254Z,15740.00
2019-02-08T11:33:16.247Z,16544.00
2019-02-08T11:34:16.237Z,18912.00
2019-02-08T11:35:16.244Z,18016.00
2019-02-08T11:36:16.215Z,17984.00
2019-02-08T11:37:16.191Z,18560.00
2019-02-08T11:38:16.194Z,21248.00
2019-02-08T11:39:16.388Z,17408.00
2019-02-08T11:40:16.165Z,18592.00
2019-02-08T11:41:16.265Z,20320.00
2019-02-08T11:42:16.149Z,30784.00
2019-02-08T11:43:16.131Z,22304.00
2019-02-08T11:44:16.126Z,40160.00
2019-02-08T11:45:16.101Z,39840.00
2019-02-08T11:46:16.109Z,20928.00
2019-02-08T11:47:16.091Z,19840.00
2019-02-08T11:48:16.073Z,19456.00
2019-02-08T11:49:16.055Z,40960.00
2019-02-08T11:50:16.049Z,40416.00
2019-02-08T11:51:16.074Z,39680.00
2019-02-08T11:52:16.023Z,17792.00
2019-02-08T11:53:16.024Z,15764.00
2019-02-08T11:54:16.004Z,16832.00
2019-02-08T11:55:15.998Z,21312.00
2019-02-08T11:56:16.017Z,14432.00
2019-02-08T11:57:16.034Z,13172.00
2019-02-08T11:58:16.059Z,11628.00
2019-02-08T11:59:15.943Z,11596.00
2019-02-08T12:00:15.942Z,11908.00
2019-02-08T12:01:15.929Z,11660.00
2019-02-08T12:02:15.927Z,12224.00
2019-02-08T12:03:15.895Z,12604.00
2019-02-08T12:04:15.892Z,13160.00
2019-02-08T12:05:15.874Z,13352.00
2019-02-08T12:06:15.886Z,13336.00
2019-02-08T12:07:15.870Z,13696.00
2019-02-08T12:08:15.897Z,13656.00
2019-02-08T12:09:15.840Z,13160.00
2019-02-08T12:10:15.838Z,12612.00
2019-02-08T12:11:15.842Z,12700.00
2019-02-08T12:12:15.825Z,14436.00
2019-02-08T12:13:15.789Z,15412.00
2019-02-08T12:14:15.776Z,17248.00
2019-02-08T12:15:15.769Z,17888.00
2019-02-08T12:16:15.754Z,17216.00
2019-02-08T12:17:15.768Z,16152.00
2019-02-08T12:18:15.731Z,14976.00
2019-02-08T12:19:15.723Z,13728.00
2019-02-08T12:20:15.710Z,12652.00
2019-02-08T12:21:15.708Z,11488.00
2019-02-08T12:22:15.686Z,10580.00
2019-02-08T12:23:15.690Z,11584.00
2019-02-08T12:24:15.664Z,12268.00
2019-02-08T12:25:15.657Z,13096.00
2019-02-08T12:26:15.638Z,13040.00
2019-02-08T12:27:15.629Z,13292.00
2019-02-08T12:28:15.633Z,13044.00
2019-02-08T12:29:15.626Z,12480.00
2019-02-08T12:30:15.596Z,12016.00
2019-02-08T12:31:15.585Z,11644.00
2019-02-08T12:32:15.569Z,11756.00
2019-02-08T12:33:15.585Z,11652.00
2019-02-08T12:34:15.557Z,11796.00
2019-02-08T12:35:15.549Z,11916.00
2019-02-08T12:36:15.529Z,12080.00
2019-02-08T12:37:15.519Z,11332.00